Time;durP1;ratioP1;P1;durP2;ratioP2;P2;SDS_P1;SDS_P2;PMS_P1;PMS_P2;Temp;Humidity;BMP_temperature;BMP_pressure;BME280_temperature;BME280_humidity;BME280_pressure;Samples;Min_cycle;Max_cycle;Signal;HPM_P1;HPM_P2
2022/08/30 00:03:20;;;;;;;;;;;;;;;;;;4963040;28;19918;-42
2022/08/30 00:05:47;;;;;;;;;;;;;;;;;;5026127;28;19919;-42
2022/08/30 00:08:13;;;;;;;;;;;;;;;;;;5044303;28;19931;-42
2022/08/30 00:10:39;;;;;;;;;;;;;;;;;;5044361;28;19913;-42
2022/08/30 00:13:06;;;;;;;;;;;;;;;;;;5047061;28;20050;-41
2022/08/30 00:15:32;;;;;;;;;;;;;;;;;;5047552;28;19987;-41
2022/08/30 00:17:59;;;;;;;;;;;;;;;;;;5049340;28;19935;-42
2022/08/30 00:20:25;;;;;;;;;;;;;;;;;;5047100;28;20354;-42
2022/08/30 00:22:51;;;;;;;;;;;;;;;;;;5048317;28;20017;-43
2022/08/30 00:25:18;;;;;;;;;;;;;;;;;;5047287;28;19916;-43
2022/08/30 00:27:44;;;;;;;;;;;;;;;;;;5048109;28;19928;-42
2022/08/30 00:30:10;;;;;;;;;;;;;;;;;;5047713;28;19908;-41
2022/08/30 00:32:35;;;;;;;;;;;;;;;;;;5047956;28;19915;-43
2022/08/30 00:35:01;;;;;;;;;;;;;;;;;;5048156;28;19909;-41
2022/08/30 00:37:27;;;;;;;;;;;;;;;;;;5048267;28;19916;-42
2022/08/30 00:39:53;;;;;;;;;;;;;;;;;;5047368;28;19912;-42
2022/08/30 00:42:19;;;;;;;;;;;;;;;;;;5047429;28;20499;-41
2022/08/30 00:44:45;;;;;;;;;;;;;;;;;;5046917;28;19917;-41
2022/08/30 00:47:11;;;;;;;;;;;;;;;;;;5047803;28;20429;-41
2022/08/30 00:49:37;;;;;;;;;;;;;;;;;;5047265;28;19963;-41
2022/08/30 00:52:04;;;;;;;;;;;;;;;;;;5047198;28;19913;-42
2022/08/30 00:54:29;;;;;;;;;;;;;;;;;;5047719;28;19913;-41
2022/08/30 00:56:55;;;;;;;;;;;;;;;;;;5047444;28;19920;-41
2022/08/30 00:59:23;;;;;;;;;;;;;;;;;;5046279;28;19982;-41
2022/08/30 01:01:49;;;;;;;;;;;;;;;;;;5046958;28;19909;-41
2022/08/30 01:04:18;;;;;;;;;;;;;;;;;;5047331;28;19909;-42
2022/08/30 01:06:45;;;;;;;;;;;;;;;;;;5047626;28;20295;-42
2022/08/30 01:09:12;;;;;;;;;;;;;;;;;;5047174;28;20358;-42
2022/08/30 01:11:38;;;;;;;;;;;;;;;;;;5046964;28;19913;-41
2022/08/30 01:14:04;;;;;;;;;;;;;;;;;;5046393;28;19915;-42
2022/08/30 01:16:30;;;;;;;;;;;;;;;;;;5029427;28;20210;-42
2022/08/30 01:18:56;;;;;;;;;;;;;;;;;;5047641;28;20380;-42
2022/08/30 01:21:22;;;;;;;;;;;;;;;;;;5046850;28;19995;-42
2022/08/30 01:23:49;;;;;;;;;;;;;;;;;;5045536;28;19920;-42
2022/08/30 01:26:16;;;;;;;;;;;;;;;;;;5045503;28;19934;-43
2022/08/30 01:28:42;;;;;;;;;;;;;;;;;;5046974;28;19913;-41
2022/08/30 01:31:08;;;;;;;;;;;;;;;;;;5045879;28;19916;-42
2022/08/30 01:33:34;;;;;;;;;;;;;;;;;;5046611;28;20322;-42
2022/08/30 01:35:59;;;;;;;;;;;;;;;;;;5047245;28;19909;-42
2022/08/30 01:38:25;;;;;;;;;;;;;;;;;;5045872;28;20420;-41
2022/08/30 01:40:51;;;;;;;;;;;;;;;;;;5046506;28;19916;-43
2022/08/30 01:43:18;;;;;;;;;;;;;;;;;;5046483;28;19940;-42
2022/08/30 01:45:43;;;;;;;;;;;;;;;;;;5046199;28;19913;-43
2022/08/30 01:48:13;;;;;;;;;;;;;;;;;;5046537;28;19912;-42
2022/08/30 01:50:39;;;;;;;;;;;;;;;;;;5045616;28;19913;-42
2022/08/30 01:53:05;;;;;;;;;;;;;;;;;;5046320;28;20298;-42
2022/08/30 01:55:31;;;;;;;;;;;;;;;;;;5046573;28;19986;-42
2022/08/30 01:57:58;;;;;;;;;;;;;;;;;;5047068;28;19912;-42
2022/08/30 02:00:24;;;;;;;;;;;;;;;;;;5045631;28;20392;-43
2022/08/30 02:02:50;;;;;;;;;;;;;;;;;;5046215;28;19916;-42
2022/08/30 02:05:16;;;;;;;;;;;;;;;;;;5044856;28;20420;-43
2022/08/30 02:07:42;;;;;;;;;;;;;;;;;;5045576;28;19956;-42
2022/08/30 02:10:08;;;;;;;;;;;;;;;;;;5045958;28;19999;-42
2022/08/30 02:12:34;;;;;;;;;;;;;;;;;;5044986;28;19925;-42
2022/08/30 02:14:59;;;;;;;;;;;;;;;;;;5046174;28;19913;-42
2022/08/30 02:17:25;;;;;;;;;;;;;;;;;;5045791;28;20391;-42
2022/08/30 02:19:51;;;;;;;;;;;;;;;;;;5045839;28;19963;-42
2022/08/30 02:22:19;;;;;;;;;;;;;;;;;;5045912;28;20415;-43
2022/08/30 02:24:45;;;;;;;;;;;;;;;;;;5045833;28;20337;-42
2022/08/30 02:27:11;;;;;;;;;;;;;;;;;;5045121;28;19925;-42
2022/08/30 02:29:37;;;;;;;;;;;;;;;;;;5045252;28;19958;-43
2022/08/30 02:32:04;;;;;;;;;;;;;;;;;;5045681;28;20383;-42
2022/08/30 02:34:30;;;;;;;;;;;;;;;;;;5044832;28;19931;-42
2022/08/30 02:36:56;;;;;;;;;;;;;;;;;;5045683;28;20308;-42
2022/08/30 02:39:21;;;;;;;;;;;;;;;;;;5045410;28;19955;-42
2022/08/30 02:41:48;;;;;;;;;;;;;;;;;;5045632;28;19913;-42
2022/08/30 02:44:14;;;;;;;;;;;;;;;;;;5045549;28;19920;-42
2022/08/30 02:46:40;;;;;;;;;;;;;;;;;;5045229;28;19966;-42
2022/08/30 02:49:07;;;;;;;;;;;;;;;;;;5044854;28;20396;-42
2022/08/30 02:51:33;;;;;;;;;;;;;;;;;;5045130;28;19916;-42
2022/08/30 02:53:59;;;;;;;;;;;;;;;;;;5045964;28;20391;-42
2022/08/30 02:56:27;;;;;;;;;;;;;;;;;;5045153;28;20294;-42
2022/08/30 02:58:54;;;;;;;;;;;;;;;;;;5044445;28;19912;-42
2022/08/30 03:01:20;;;;;;;;;;;;;;;;;;5044991;28;19909;-42
2022/08/30 03:03:46;;;;;;;;;;;;;;;;;;5045279;28;19909;-42
2022/08/30 03:06:12;;;;;;;;;;;;;;;;;;5045040;28;19913;-42
2022/08/30 03:08:37;;;;;;;;;;;;;;;;;;5044854;28;19917;-42
2022/08/30 03:11:03;;;;;;;;;;;;;;;;;;5045320;28;19919;-42
2022/08/30 03:13:29;;;;;;;;;;;;;;;;;;5044779;28;20376;-42
2022/08/30 03:15:55;;;;;;;;;;;;;;;;;;5045405;28;19998;-43
2022/08/30 03:18:22;;;;;;;;;;;;;;;;;;5044831;28;20375;-42
2022/08/30 03:20:48;;;;;;;;;;;;;;;;;;5044885;28;19932;-42
2022/08/30 03:23:14;;;;;;;;;;;;;;;;;;5045104;28;19913;-43
2022/08/30 03:25:41;;;;;;;;;;;;;;;;;;5044234;28;20329;-43
2022/08/30 03:28:07;;;;;;;;;;;;;;;;;;5043127;28;19927;-42
2022/08/30 03:30:33;;;;;;;;;;;;;;;;;;5044638;28;20000;-42
2022/08/30 03:32:59;;;;;;;;;;;;;;;;;;5044862;28;19913;-58
2022/08/30 03:35:25;;;;;;;;;;;;;;;;;;5044591;28;19943;-58
2022/08/30 03:37:51;;;;;;;;;;;;;;;;;;5044675;28;19940;-58
2022/08/30 03:40:17;;;;;;;;;;;;;;;;;;5045090;28;19960;-58
2022/08/30 03:42:43;;;;;;;;;;;;;;;;;;5044920;28;20415;-58
2022/08/30 03:45:09;;;;;;;;;;;;;;;;;;5043624;28;20327;-58
2022/08/30 03:47:35;;;;;;;;;;;;;;;;;;5045424;28;19917;-58
2022/08/30 03:50:01;;;;;;;;;;;;;;;;;;5048418;28;20198;-58
2022/08/30 03:52:28;;;;;;;;;;;;;;;;;;5048245;28;20023;-58
2022/08/30 03:54:54;;;;;;;;;;;;;;;;;;5047392;28;20292;-58
2022/08/30 03:57:20;;;;;;;;;;;;;;;;;;5048518;28;19919;-58
2022/08/30 03:59:47;;;;;;;;;;;;;;;;;;5048846;28;19913;-58
2022/08/30 04:02:13;;;;;;;;;;;;;;;;;;5048575;28;19912;-58
2022/08/30 04:04:40;;;;;;;;;;;;;;;;;;5048321;28;19916;-58
2022/08/30 04:07:06;;;;;;;;;;;;;;;;;;5048560;28;19913;-58
2022/08/30 04:09:32;;;;;;;;;;;;;;;;;;5047741;28;19959;-58
2022/08/30 04:11:59;;;;;;;;;;;;;;;;;;5048797;28;20396;-58
2022/08/30 04:14:25;;;;;;;;;;;;;;;;;;5047982;28;19913;-58
2022/08/30 04:16:51;;;;;;;;;;;;;;;;;;5048073;28;20077;-58
2022/08/30 04:19:17;;;;;;;;;;;;;;;;;;5048001;28;19913;-58
2022/08/30 04:21:44;;;;;;;;;;;;;;;;;;5047489;28;19923;-58
2022/08/30 04:24:10;;;;;;;;;;;;;;;;;;5048321;28;20402;-58
2022/08/30 04:26:37;;;;;;;;;;;;;;;;;;5046455;28;19967;-58
2022/08/30 04:29:03;;;;;;;;;;;;;;;;;;5047311;28;19912;-58
2022/08/30 04:31:30;;;;;;;;;;;;;;;;;;5048339;28;19908;-58
2022/08/30 04:33:56;;;;;;;;;;;;;;;;;;5047725;28;19909;-58
2022/08/30 04:36:22;;;;;;;;;;;;;;;;;;5047234;28;20847;-57
2022/08/30 04:38:48;;;;;;;;;;;;;;;;;;5048150;28;19996;-58
2022/08/30 04:41:15;;;;;;;;;;;;;;;;;;5047816;28;20003;-58
2022/08/30 04:43:41;;;;;;;;;;;;;;;;;;5047677;28;19917;-58
2022/08/30 04:46:07;;;;;;;;;;;;;;;;;;5047763;28;20410;-58
2022/08/30 04:48:32;;;;;;;;;;;;;;;;;;5046487;28;19920;-58
2022/08/30 04:50:58;;;;;;;;;;;;;;;;;;5048158;28;19913;-57
2022/08/30 04:53:24;;;;;;;;;;;;;;;;;;5047290;28;19962;-58
2022/08/30 04:55:50;;;;;;;;;;;;;;;;;;5047723;28;19920;-58
2022/08/30 04:58:16;;;;;;;;;;;;;;;;;;5046827;28;19955;-58
2022/08/30 05:00:43;;;;;;;;;;;;;;;;;;5047191;28;19944;-58
2022/08/30 05:03:11;;;;;;;;;;;;;;;;;;5046389;28;19921;-58
2022/08/30 05:05:40;;;;;;;;;;;;;;;;;;5047128;28;19912;-58
2022/08/30 05:08:07;;;;;;;;;;;;;;;;;;5047127;28;20431;-57
2022/08/30 05:10:33;;;;;;;;;;;;;;;;;;5047037;28;19919;-58
2022/08/30 05:12:59;;;;;;;;;;;;;;;;;;5048093;28;20291;-58
2022/08/30 05:15:25;;;;;;;;;;;;;;;;;;5046987;28;19908;-58
2022/08/30 05:17:51;;;;;;;;;;;;;;;;;;5046061;28;20450;-58
2022/08/30 05:20:16;;;;;;;;;;;;;;;;;;5047088;28;20357;-58
2022/08/30 05:22:48;;;;;;;;;;;;;;;;;;5046819;28;20144;-57
2022/08/30 05:25:14;;;;;;;;;;;;;;;;;;5046943;28;20337;-58
2022/08/30 05:27:40;;;;;;;;;;;;;;;;;;5046330;28;19966;-57
2022/08/30 05:30:06;;;;;;;;;;;;;;;;;;5046699;28;19909;-57
2022/08/30 05:32:32;;;;;;;;;;;;;;;;;;5045118;28;19951;-59
2022/08/30 05:34:58;;;;;;;;;;;;;;;;;;5046845;28;19919;-59
2022/08/30 05:37:24;;;;;;;;;;;;;;;;;;5045469;28;20386;-59
2022/08/30 05:39:50;;;;;;;;;;;;;;;;;;5046015;28;19923;-59
2022/08/30 05:42:16;;;;;;;;;;;;;;;;;;5045048;28;20434;-59
2022/08/30 05:44:41;;;;;;;;;;;;;;;;;;5046787;28;19920;-59
2022/08/30 05:47:07;;;;;;;;;;;;;;;;;;5047309;28;20338;-59
2022/08/30 05:49:33;;;;;;;;;;;;;;;;;;5046674;28;19943;-59
2022/08/30 05:51:59;;;;;;;;;;;;;;;;;;5048509;28;19912;-59
2022/08/30 05:54:25;;;;;;;;;;;;;;;;;;5046588;28;19917;-59
2022/08/30 05:56:51;;;;;;;;;;;;;;;;;;5046886;28;20028;-59
2022/08/30 05:59:17;;;;;;;;;;;;;;;;;;5047463;28;19917;-59
2022/08/30 06:01:43;;;;;;;;;;;;;;;;;;5047930;28;19955;-58
2022/08/30 06:04:09;;;;;;;;;;;;;;;;;;5047355;28;19955;-59
2022/08/30 06:06:35;;;;;;;;;;;;;;;;;;5047303;28;19913;-59
2022/08/30 06:09:01;;;;;;;;;;;;;;;;;;5047073;28;19920;-59
2022/08/30 06:11:27;;;;;;;;;;;;;;;;;;5045766;28;19955;-59
2022/08/30 06:13:53;;;;;;;;;;;;;;;;;;5043559;28;19948;-59
2022/08/30 06:16:19;;;;;;;;;;;;;;;;;;5046967;28;20007;-59
2022/08/30 06:18:46;;;;;;;;;;;;;;;;;;5047606;28;19905;-58
2022/08/30 06:21:12;;;;;;;;;;;;;;;;;;5047475;28;19992;-59
2022/08/30 06:23:38;;;;;;;;;;;;;;;;;;5030909;28;19996;-59
2022/08/30 06:26:04;;;;;;;;;;;;;;;;;;5046193;28;19920;-59
2022/08/30 06:28:31;;;;;;;;;;;;;;;;;;5047325;28;19920;-58
2022/08/30 06:30:57;;;;;;;;;;;;;;;;;;5047988;28;19917;-59
2022/08/30 06:33:23;;;;;;;;;;;;;;;;;;5046910;28;19920;-59
2022/08/30 06:35:49;;;;;;;;;;;;;;;;;;5045795;28;19921;-59
2022/08/30 06:38:14;;;;;;;;;;;;;;;;;;5046797;28;19913;-59
2022/08/30 06:40:40;;;;;;;;;;;;;;;;;;5046729;28;19908;-59
2022/08/30 06:43:06;;;;;;;;;;;;;;;;;;5045466;28;20039;-59
2022/08/30 06:45:32;;;;;;;;;;;;;;;;;;5046968;28;19909;-59
2022/08/30 06:47:58;;;;;;;;;;;;;;;;;;5046677;28;19916;-58
2022/08/30 06:50:24;;;;;;;;;;;;;;;;;;5046693;28;19987;-58
2022/08/30 06:52:50;;;;;;;;;;;;;;;;;;5046824;28;19913;-58
2022/08/30 06:55:16;;;;;;;;;;;;;;;;;;5046663;28;19996;-59
2022/08/30 06:57:42;;;;;;;;;;;;;;;;;;5046307;28;20010;-59
2022/08/30 07:00:08;;;;;;;;;;;;;;;;;;5045299;28;20395;-59
2022/08/30 07:02:34;;;;;;;;;;;;;;;;;;5046563;28;19944;-59
2022/08/30 07:05:01;;;;;;;;;;;;;;;;;;5044133;28;19936;-59
2022/08/30 07:07:27;;;;;;;;;;;;;;;;;;5026870;28;19914;-58
2022/08/30 07:09:53;;;;;;;;;;;;;;;;;;5033820;28;19916;-58
2022/08/30 07:12:19;;;;;;;;;;;;;;;;;;5044204;28;20476;-58
2022/08/30 07:14:45;;;;;;;;;;;;;;;;;;5046057;28;19999;-58
2022/08/30 07:19:56;;;;;;;;;;;;;;;;;;5045003;28;19916;-57
2022/08/30 07:22:22;;;;;;;;;;;;;;;;;;5047998;28;19908;-57
2022/08/30 07:24:48;;;;;;;;;;;;;;;;;;5049223;28;19913;-57
2022/08/30 07:27:14;;;;;;;;;;;;;;;;;;5048818;28;19960;-58
2022/08/30 07:29:39;;;;;;;;;;;;;;;;;;5048857;28;19939;-57
2022/08/30 07:32:05;;;;;;;;;;;;;;;;;;5049050;28;20246;-58
2022/08/30 07:34:32;;;;;;;;;;;;;;;;;;5049371;28;20007;-57
2022/08/30 07:36:59;;;;;;;;;;;;;;;;;;5049751;28;19909;-58
2022/08/30 07:39:25;;;;;;;;;;;;;;;;;;5048550;28;19963;-57
2022/08/30 07:41:51;;;;;;;;;;;;;;;;;;5048555;28;19937;-57
2022/08/30 07:44:17;;;;;;;;;;;;;;;;;;5049018;28;20464;-58
2022/08/30 07:46:43;;;;;;;;;;;;;;;;;;5048872;28;19920;-58
2022/08/30 07:49:10;;;;;;;;;;;;;;;;;;5048695;28;20358;-58
2022/08/30 07:51:36;;;;;;;;;;;;;;;;;;5048527;28;19909;-58
2022/08/30 07:54:01;;;;;;;;;;;;;;;;;;5049270;28;19909;-57
2022/08/30 07:56:27;;;;;;;;;;;;;;;;;;5048628;28;19917;-58
2022/08/30 07:58:53;;;;;;;;;;;;;;;;;;5048580;28;19939;-57
2022/08/30 08:01:20;;;;;;;;;;;;;;;;;;5048298;28;19919;-57
2022/08/30 08:03:49;;;;;;;;;;;;;;;;;;5048618;28;19909;-58
2022/08/30 08:06:14;;;;;;;;;;;;;;;;;;5048822;28;19966;-58
2022/08/30 08:08:40;;;;;;;;;;;;;;;;;;5048167;28;19909;-58
2022/08/30 08:11:06;;;;;;;;;;;;;;;;;;5048042;28;19916;-57
2022/08/30 08:13:33;;;;;;;;;;;;;;;;;;5048177;28;19935;-58
2022/08/30 08:15:59;;;;;;;;;;;;;;;;;;5048929;28;20281;-58
2022/08/30 08:18:25;;;;;;;;;;;;;;;;;;5047782;28;19919;-57
2022/08/30 08:20:51;;;;;;;;;;;;;;;;;;5048121;28;19908;-57
2022/08/30 08:23:16;;;;;;;;;;;;;;;;;;5048113;28;19920;-57
2022/08/30 08:25:42;;;;;;;;;;;;;;;;;;5047870;28;19908;-57
2022/08/30 08:28:08;;;;;;;;;;;;;;;;;;5048247;28;20011;-58
2022/08/30 08:30:34;;;;;;;;;;;;;;;;;;5047494;28;20277;-58
2022/08/30 08:33:02;;;;;;;;;;;;;;;;;;5047708;28;19967;-58
2022/08/30 08:35:28;;;;;;;;;;;;;;;;;;5047988;28;19913;-57
2022/08/30 08:37:54;;;;;;;;;;;;;;;;;;5047744;28;20407;-58
2022/08/30 08:40:20;;;;;;;;;;;;;;;;;;5047097;28;19917;-58
2022/08/30 08:42:46;;;;;;;;;;;;;;;;;;5047853;28;20410;-58
2022/08/30 08:45:12;;;;;;;;;;;;;;;;;;5047713;28;20449;-58
2022/08/30 08:47:38;;;;;;;;;;;;;;;;;;5047329;28;19917;-58
2022/08/30 08:50:04;;;;;;;;;;;;;;;;;;5047569;28;19917;-57
2022/08/30 08:55:15;;;;;;;;;;;;;;;;;;5047235;28;19957;-58
2022/08/30 08:57:41;;;;;;;;;;;;;;;;;;5047153;28;19909;-58
2022/08/30 09:00:08;;;;;;;;;;;;;;;;;;5047403;28;20412;-57
2022/08/30 09:02:34;;;;;;;;;;;;;;;;;;5047243;28;19913;-58
2022/08/30 09:05:00;;;;;;;;;;;;;;;;;;5048068;28;19913;-58
2022/08/30 09:07:25;;;;;;;;;;;;;;;;;;5046958;28;19920;-58
2022/08/30 09:09:51;;;;;;;;;;;;;;;;;;5046904;28;19967;-57
2022/08/30 09:12:19;;;;;;;;;;;;;;;;;;5029325;28;19916;-58
2022/08/30 09:14:45;;;;;;;;;;;;;;;;;;5047524;28;20438;-44
2022/08/30 09:17:11;;;;;;;;;;;;;;;;;;5047127;28;19912;-58
2022/08/30 09:19:37;;;;;;;;;;;;;;;;;;5046662;28;19909;-58
2022/08/30 09:22:03;;;;;;;;;;;;;;;;;;5046978;28;19978;-58
2022/08/30 09:24:29;;;;;;;;;;;;;;;;;;5047006;28;19951;-58
2022/08/30 09:26:55;;;;;;;;;;;;;;;;;;5046836;28;19916;-58
2022/08/30 09:29:21;;;;;;;;;;;;;;;;;;5046566;28;20410;-58
2022/08/30 09:31:49;;;;;;;;;;;;;;;;;;5046891;28;20354;-58
2022/08/30 09:34:15;;;;;;;;;;;;;;;;;;5046839;28;19975;-58
2022/08/30 09:36:42;;;;;;;;;;;;;;;;;;5046282;28;19940;-58
2022/08/30 09:39:08;;;;;;;;;;;;;;;;;;5046608;28;20384;-58
2022/08/30 09:41:34;;;;;;;;;;;;;;;;;;5046152;28;19920;-57
2022/08/30 09:44:00;;;;;;;;;;;;;;;;;;5047105;28;19983;-58
2022/08/30 09:46:27;;;;;;;;;;;;;;;;;;5046545;28;19932;-58
2022/08/30 09:48:53;;;;;;;;;;;;;;;;;;5046258;28;19913;-57
2022/08/30 09:51:18;;;;;;;;;;;;;;;;;;5046173;28;20280;-58
2022/08/30 09:53:44;;;;;;;;;;;;;;;;;;5046506;28;20403;-58
2022/08/30 09:56:10;;;;;;;;;;;;;;;;;;5046234;28;19979;-58
2022/08/30 09:58:36;;;;;;;;;;;;;;;;;;5046553;28;19909;-57
2022/08/30 10:01:02;;;;;;;;;;;;;;;;;;5046068;28;19909;-58
2022/08/30 10:03:28;;;;;;;;;;;;;;;;;;5046298;28;19920;-58
2022/08/30 10:05:54;;;;;;;;;;;;;;;;;;5046259;28;19959;-58
2022/08/30 10:08:20;;;;;;;;;;;;;;;;;;5045687;28;19916;-57
2022/08/30 10:10:46;;;;;;;;;;;;;;;;;;5045739;28;19912;-58
2022/08/30 10:13:12;;;;;;;;;;;;;;;;;;5046016;28;19916;-58
2022/08/30 10:15:38;;;;;;;;;;;;;;;;;;5045671;28;19913;-58
2022/08/30 10:18:04;;;;;;;;;;;;;;;;;;5045976;28;20283;-58
2022/08/30 10:20:30;;;;;;;;;;;;;;;;;;5045966;28;20376;-58
2022/08/30 10:22:56;;;;;;;;;;;;;;;;;;5045860;28;19913;-58
2022/08/30 10:25:21;;;;;;;;;;;;;;;;;;5045408;28;19948;-56
2022/08/30 10:27:47;;;;;;;;;;;;;;;;;;5045739;28;19921;-58
2022/08/30 10:30:14;;;;;;;;;;;;;;;;;;5045637;28;19908;-58
2022/08/30 10:32:40;;;;;;;;;;;;;;;;;;5045702;28;19995;-58
2022/08/30 10:35:06;;;;;;;;;;;;;;;;;;5045576;28;19999;-58
2022/08/30 10:37:32;;;;;;;;;;;;;;;;;;5045057;28;20404;-58
2022/08/30 10:39:59;;;;;;;;;;;;;;;;;;5045903;28;19983;-58
2022/08/30 10:42:25;;;;;;;;;;;;;;;;;;5045165;28;19974;-58
2022/08/30 10:44:51;;;;;;;;;;;;;;;;;;5045635;28;19917;-58
2022/08/30 10:47:17;;;;;;;;;;;;;;;;;;5045402;28;20371;-58
2022/08/30 10:49:42;;;;;;;;;;;;;;;;;;5045134;28;20003;-58
2022/08/30 10:52:08;;;;;;;;;;;;;;;;;;5046123;28;19921;-57
2022/08/30 10:54:34;;;;;;;;;;;;;;;;;;5044333;28;19920;-58
2022/08/30 10:57:00;;;;;;;;;;;;;;;;;;5042654;28;19913;-58
2022/08/30 10:59:26;;;;;;;;;;;;;;;;;;5047311;28;19909;-58
2022/08/30 11:01:52;;;;;;;;;;;;;;;;;;5045914;28;20003;-58
2022/08/30 11:04:18;;;;;;;;;;;;;;;;;;5047132;28;19916;-58
2022/08/30 11:06:44;;;;;;;;;;;;;;;;;;5042166;28;20015;-58
2022/08/30 11:09:10;;;;;;;;;;;;;;;;;;5045891;28;20334;-58
2022/08/30 11:11:36;;;;;;;;;;;;;;;;;;5044053;28;19935;-58
2022/08/30 11:14:03;;;;;;;;;;;;;;;;;;5046537;28;20172;-58
2022/08/30 11:16:30;;;;;;;;;;;;;;;;;;5042875;28;19924;-58
2022/08/30 11:18:55;;;;;;;;;;;;;;;;;;5044369;28;20079;-58
2022/08/30 11:21:22;;;;;;;;;;;;;;;;;;5042797;28;20007;-58
2022/08/30 11:23:48;;;;;;;;;;;;;;;;;;5045217;28;20124;-59
2022/08/30 11:26:14;;;;;;;;;;;;;;;;;;5044369;28;20439;-57
2022/08/30 11:28:40;;;;;;;;;;;;;;;;;;5025601;28;19916;-58
2022/08/30 11:31:06;;;;;;;;;;;;;;;;;;5037971;28;19943;-58
2022/08/30 11:33:32;;;;;;;;;;;;;;;;;;5044899;28;19909;-58
2022/08/30 11:35:58;;;;;;;;;;;;;;;;;;5045173;28;20271;-58
2022/08/30 11:38:25;;;;;;;;;;;;;;;;;;5043516;28;19912;-58
2022/08/30 11:40:52;;;;;;;;;;;;;;;;;;5043699;28;20390;-58
2022/08/30 11:43:17;;;;;;;;;;;;;;;;;;5045790;28;19916;-58
2022/08/30 11:45:43;;;;;;;;;;;;;;;;;;5046052;28;20386;-58
2022/08/30 11:48:09;;;;;;;;;;;;;;;;;;5046360;28;19924;-58
2022/08/30 11:50:36;;;;;;;;;;;;;;;;;;5046103;28;19916;-58
2022/08/30 11:53:02;;;;;;;;;;;;;;;;;;5044129;28;19916;-58
2022/08/30 11:55:27;;;;;;;;;;;;;;;;;;5044434;28;20351;-58
2022/08/30 11:57:53;;;;;;;;;;;;;;;;;;5040603;28;19916;-58
2022/08/30 12:00:19;;;;;;;;;;;;;;;;;;5043435;28;19936;-58
2022/08/30 12:02:45;;;;;;;;;;;;;;;;;;5044085;28;19917;-58
2022/08/30 12:05:11;;;;;;;;;;;;;;;;;;5043258;28;19952;-58
2022/08/30 12:07:37;;;;;;;;;;;;;;;;;;5039778;28;19929;-58
2022/08/30 12:10:03;;;;;;;;;;;;;;;;;;5044574;28;19935;-58
2022/08/30 12:12:31;;;;;;;;;;;;;;;;;;5048202;28;20303;-58
2022/08/30 12:14:57;;;;;;;;;;;;;;;;;;5047687;28;19913;-58
2022/08/30 12:20:07;;;;;;;;;;;;;;;;;;5048892;28;19970;-58
2022/08/30 12:22:36;;;;;;;;;;;;;;;;;;5049369;28;19924;-58
2022/08/30 12:25:02;;;;;;;;;;;;;;;;;;5049117;28;20331;-56
2022/08/30 12:27:28;;;;;;;;;;;;;;;;;;5047909;28;19913;-58
2022/08/30 12:29:54;;;;;;;;;;;;;;;;;;5034290;28;19912;-58
2022/08/30 12:32:21;;;;;;;;;;;;;;;;;;5047149;28;20011;-58
2022/08/30 12:34:47;;;;;;;;;;;;;;;;;;5048838;28;19921;-58
2022/08/30 12:37:13;;;;;;;;;;;;;;;;;;5047108;28;19920;-58
2022/08/30 12:39:39;;;;;;;;;;;;;;;;;;5046336;28;19912;-58
2022/08/30 12:42:05;;;;;;;;;;;;;;;;;;5045061;28;19936;-58
2022/08/30 12:44:32;;;;;;;;;;;;;;;;;;5047741;28;19921;-56
2022/08/30 12:46:58;;;;;;;;;;;;;;;;;;5044703;28;19925;-56
2022/08/30 12:49:24;;;;;;;;;;;;;;;;;;5044494;28;20291;-57
2022/08/30 12:51:49;;;;;;;;;;;;;;;;;;5047185;28;19917;-56
2022/08/30 12:54:15;;;;;;;;;;;;;;;;;;5049338;28;19912;-56
2022/08/30 12:56:41;;;;;;;;;;;;;;;;;;5047680;28;19924;-56
2022/08/30 12:59:07;;;;;;;;;;;;;;;;;;5049179;28;19959;-56
2022/08/30 13:01:34;;;;;;;;;;;;;;;;;;5047001;28;19920;-57
2022/08/30 13:04:01;;;;;;;;;;;;;;;;;;5050173;28;20000;-56
2022/08/30 13:06:27;;;;;;;;;;;;;;;;;;5047687;28;19920;-56
2022/08/30 13:08:53;;;;;;;;;;;;;;;;;;5047285;28;19928;-56
2022/08/30 13:11:19;;;;;;;;;;;;;;;;;;5045725;28;19959;-56
2022/08/30 13:13:45;;;;;;;;;;;;;;;;;;5049306;28;19916;-56
2022/08/30 13:16:11;;;;;;;;;;;;;;;;;;5048294;28;20256;-56
2022/08/30 13:18:37;;;;;;;;;;;;;;;;;;5046155;28;19916;-56
2022/08/30 13:21:02;;;;;;;;;;;;;;;;;;5047098;28;20034;-56
2022/08/30 13:23:28;;;;;;;;;;;;;;;;;;5048773;28;19912;-56
2022/08/30 13:25:54;;;;;;;;;;;;;;;;;;5047055;28;19956;-56
2022/08/30 13:28:20;;;;;;;;;;;;;;;;;;5047872;28;19913;-56
2022/08/30 13:30:46;;;;;;;;;;;;;;;;;;5047121;28;19917;-56
2022/08/30 13:33:12;;;;;;;;;;;;;;;;;;5047844;28;19912;-56
2022/08/30 13:35:38;;;;;;;;;;;;;;;;;;5045867;28;20433;-56
2022/08/30 13:38:04;;;;;;;;;;;;;;;;;;5046276;28;20555;-57
2022/08/30 13:40:30;;;;;;;;;;;;;;;;;;5047120;28;19917;-57
2022/08/30 13:42:56;;;;;;;;;;;;;;;;;;5046354;28;19917;-57
2022/08/30 13:45:22;;;;;;;;;;;;;;;;;;5045064;28;19921;-57
2022/08/30 13:47:48;;;;;;;;;;;;;;;;;;5045988;28;19949;-57
2022/08/30 13:50:14;;;;;;;;;;;;;;;;;;5044808;28;19913;-56
2022/08/30 13:52:40;;;;;;;;;;;;;;;;;;5045958;28;19920;-56
2022/08/30 13:55:06;;;;;;;;;;;;;;;;;;5044200;28;19988;-57
2022/08/30 13:57:32;;;;;;;;;;;;;;;;;;5045562;28;19971;-57
2022/08/30 13:59:58;;;;;;;;;;;;;;;;;;5048797;28;19963;-56
2022/08/30 14:02:24;;;;;;;;;;;;;;;;;;5046938;28;19936;-57
2022/08/30 14:04:50;;;;;;;;;;;;;;;;;;5045618;28;19921;-56
2022/08/30 14:07:16;;;;;;;;;;;;;;;;;;5047161;28;19913;-57
2022/08/30 14:09:42;;;;;;;;;;;;;;;;;;5046319;28;20012;-57
2022/08/30 14:12:08;;;;;;;;;;;;;;;;;;5047191;28;19917;-57
2022/08/30 14:14:34;;;;;;;;;;;;;;;;;;5046635;28;20000;-57
2022/08/30 14:17:00;;;;;;;;;;;;;;;;;;5045729;28;19913;-56
2022/08/30 14:19:26;;;;;;;;;;;;;;;;;;5042445;28;19912;-56
2022/08/30 14:21:51;;;;;;;;;;;;;;;;;;5046500;28;19909;-56
2022/08/30 14:24:18;;;;;;;;;;;;;;;;;;5048497;28;19912;-56
2022/08/30 14:26:46;;;;;;;;;;;;;;;;;;5044343;28;20352;-56
2022/08/30 14:29:12;;;;;;;;;;;;;;;;;;5046473;28;19959;-57
2022/08/30 14:31:38;;;;;;;;;;;;;;;;;;5026513;28;19951;-57
2022/08/30 14:34:04;;;;;;;;;;;;;;;;;;5047249;28;20399;-56
2022/08/30 14:36:30;;;;;;;;;;;;;;;;;;5042719;28;19916;-57
2022/08/30 14:38:57;;;;;;;;;;;;;;;;;;5041670;28;19966;-57
2022/08/30 14:41:23;;;;;;;;;;;;;;;;;;5046029;28;19912;-56
2022/08/30 14:43:49;;;;;;;;;;;;;;;;;;5047941;28;20303;-56
2022/08/30 14:46:15;;;;;;;;;;;;;;;;;;5045433;28;19913;-57
2022/08/30 14:48:40;;;;;;;;;;;;;;;;;;5043282;28;19924;-56
2022/08/30 14:51:06;;;;;;;;;;;;;;;;;;5044429;28;19912;-56
2022/08/30 14:53:32;;;;;;;;;;;;;;;;;;5046967;28;19923;-57
2022/08/30 14:55:58;;;;;;;;;;;;;;;;;;5045729;28;19920;-57
2022/08/30 14:58:24;;;;;;;;;;;;;;;;;;5040584;28;19925;-57
2022/08/30 15:00:51;;;;;;;;;;;;;;;;;;5045204;28;19913;-57
2022/08/30 15:03:17;;;;;;;;;;;;;;;;;;5045141;28;20007;-55
2022/08/30 15:05:44;;;;;;;;;;;;;;;;;;5045234;28;20438;-57
2022/08/30 15:08:10;;;;;;;;;;;;;;;;;;5045220;28;19968;-56
2022/08/30 15:10:36;;;;;;;;;;;;;;;;;;5043113;28;19951;-57
2022/08/30 15:13:02;;;;;;;;;;;;;;;;;;5044834;28;20268;-57
2022/08/30 15:15:28;;;;;;;;;;;;;;;;;;5045993;28;19913;-57
2022/08/30 15:17:53;;;;;;;;;;;;;;;;;;5044391;28;19978;-57
2022/08/30 15:20:20;;;;;;;;;;;;;;;;;;5039512;28;19917;-56
2022/08/30 15:22:47;;;;;;;;;;;;;;;;;;5044339;28;20395;-57
2022/08/30 15:25:13;;;;;;;;;;;;;;;;;;5042628;28;19920;-56
2022/08/30 15:27:39;;;;;;;;;;;;;;;;;;5044564;28;19913;-56
2022/08/30 15:30:06;;;;;;;;;;;;;;;;;;5040576;28;19917;-57
2022/08/30 15:32:32;;;;;;;;;;;;;;;;;;5043430;28;20000;-57
2022/08/30 15:34:59;;;;;;;;;;;;;;;;;;5039137;28;20126;-57
2022/08/30 15:37:24;;;;;;;;;;;;;;;;;;5043324;28;19913;-56
2022/08/30 15:39:51;;;;;;;;;;;;;;;;;;5047212;28;19913;-56
2022/08/30 15:42:18;;;;;;;;;;;;;;;;;;5045563;28;20299;-55
2022/08/30 15:44:44;;;;;;;;;;;;;;;;;;5047313;28;19924;-56
2022/08/30 15:47:10;;;;;;;;;;;;;;;;;;5047491;28;19925;-56
2022/08/30 15:49:36;;;;;;;;;;;;;;;;;;5049207;28;19964;-56
2022/08/30 15:52:04;;;;;;;;;;;;;;;;;;5048355;28;20377;-55
2022/08/30 15:54:29;;;;;;;;;;;;;;;;;;5050085;28;19913;-54
2022/08/30 15:56:58;;;;;;;;;;;;;;;;;;5049388;28;20000;-55
2022/08/30 15:59:24;;;;;;;;;;;;;;;;;;5049767;28;19935;-55
2022/08/30 16:01:51;;;;;;;;;;;;;;;;;;5047154;28;19921;-55
2022/08/30 16:04:17;;;;;;;;;;;;;;;;;;5040611;28;19944;-56
2022/08/30 16:06:42;;;;;;;;;;;;;;;;;;5045341;28;20005;-56
2022/08/30 16:09:08;;;;;;;;;;;;;;;;;;5039934;28;20021;-55
2022/08/30 16:11:34;;;;;;;;;;;;;;;;;;5044259;28;19975;-54
2022/08/30 16:14:00;;;;;;;;;;;;;;;;;;5050584;28;19986;-54
2022/08/30 16:16:26;;;;;;;;;;;;;;;;;;5045517;28;19921;-55
2022/08/30 16:18:52;;;;;;;;;;;;;;;;;;5049485;28;20003;-55
2022/08/30 16:21:18;;;;;;;;;;;;;;;;;;5042466;28;19980;-52
2022/08/30 16:23:44;;;;;;;;;;;;;;;;;;5048282;28;20003;-57
2022/08/30 16:26:10;;;;;;;;;;;;;;;;;;5049144;28;19912;-56
2022/08/30 16:28:37;;;;;;;;;;;;;;;;;;5047705;28;19923;-56
2022/08/30 16:31:03;;;;;;;;;;;;;;;;;;5038200;28;19917;-56
2022/08/30 16:33:29;;;;;;;;;;;;;;;;;;5044296;28;19999;-57
2022/08/30 16:35:56;;;;;;;;;;;;;;;;;;5047267;28;19913;-58
2022/08/30 16:38:22;;;;;;;;;;;;;;;;;;5030038;28;19966;-56
2022/08/30 16:40:47;;;;;;;;;;;;;;;;;;5045355;28;20366;-56
2022/08/30 16:43:13;;;;;;;;;;;;;;;;;;5045506;28;19974;-55
2022/08/30 16:45:39;;;;;;;;;;;;;;;;;;5046798;28;19923;-53
2022/08/30 16:48:05;;;;;;;;;;;;;;;;;;5047208;28;19917;-54